createdAt,value
2024-02-13T00:00:36.469Z,21.40
2024-02-13T00:03:06.633Z,21.40
2024-02-13T00:05:34.534Z,21.40
2024-02-13T00:08:01.986Z,21.40
2024-02-13T00:10:30.536Z,21.30
2024-02-13T00:12:59.794Z,21.40
2024-02-13T00:15:28.469Z,21.30
2024-02-13T00:17:57.273Z,21.40
2024-02-13T00:20:24.478Z,21.40
2024-02-13T00:22:51.535Z,21.40
2024-02-13T00:25:19.881Z,21.40
2024-02-13T00:27:48.059Z,21.30
2024-02-13T00:30:15.764Z,21.40
2024-02-13T00:32:43.753Z,21.40
2024-02-13T00:35:14.596Z,21.30
2024-02-13T00:37:42.166Z,21.40
2024-02-13T00:40:11.447Z,21.30
2024-02-13T00:42:39.063Z,21.30
2024-02-13T00:45:08.365Z,21.30
2024-02-13T00:47:35.736Z,21.30
2024-02-13T00:50:03.118Z,21.40
2024-02-13T00:52:31.515Z,21.30
2024-02-13T00:54:59.512Z,21.40
2024-02-13T00:57:30.167Z,21.40
2024-02-13T00:59:59.240Z,21.40
2024-02-13T01:02:27.610Z,21.40
2024-02-13T01:04:54.670Z,21.40
2024-02-13T01:07:21.795Z,21.30
2024-02-13T01:09:50.723Z,21.30
2024-02-13T01:12:17.751Z,21.30
2024-02-13T01:14:44.834Z,21.30
2024-02-13T01:17:11.967Z,21.30
2024-02-13T01:19:39.272Z,21.30
2024-02-13T01:22:06.394Z,21.30
2024-02-13T01:24:33.515Z,21.30
2024-02-13T01:27:02.193Z,21.30
2024-02-13T01:29:29.388Z,21.30
2024-02-13T01:31:56.449Z,21.30
2024-02-13T01:34:23.434Z,21.30
2024-02-13T01:36:50.791Z,21.30
2024-02-13T01:39:17.953Z,21.20
2024-02-13T01:41:45.580Z,21.20
2024-02-13T01:44:14.425Z,21.20
2024-02-13T01:46:41.601Z,21.30
2024-02-13T01:49:10.755Z,21.20
2024-02-13T01:51:40.595Z,21.30
2024-02-13T01:54:11.619Z,21.20
2024-02-13T01:56:41.233Z,21.20
2024-02-13T01:59:09.624Z,21.20
2024-02-13T02:01:38.275Z,21.20
2024-02-13T02:04:07.407Z,21.20
2024-02-13T02:06:38.209Z,21.20
2024-02-13T02:09:05.304Z,21.10
2024-02-13T02:11:32.872Z,21.10
2024-02-13T02:14:01.646Z,21.20
2024-02-13T02:16:28.877Z,21.10
2024-02-13T02:18:57.771Z,21.20
2024-02-13T02:21:25.073Z,21.20
2024-02-13T02:23:52.268Z,21.20
2024-02-13T02:26:20.709Z,21.20
2024-02-13T02:28:47.713Z,21.20
2024-02-13T02:31:16.761Z,21.20
2024-02-13T02:33:47.404Z,21.20
2024-02-13T02:36:14.727Z,21.10
2024-02-13T02:38:42.810Z,21.10
2024-02-13T02:41:10.059Z,21.10
2024-02-13T02:43:38.789Z,21.10
2024-02-13T02:46:06.793Z,21.10
2024-02-13T02:48:34.642Z,21.10
2024-02-13T02:51:02.249Z,21.10
2024-02-13T02:53:29.466Z,21.10
2024-02-13T02:55:56.547Z,21.10
2024-02-13T02:58:23.746Z,21.10
2024-02-13T03:00:53.240Z,21.10
2024-02-13T03:03:22.698Z,21.10
2024-02-13T03:05:52.953Z,21.10
2024-02-13T03:08:20.713Z,21.00
2024-02-13T03:10:47.853Z,21.00
2024-02-13T03:13:15.252Z,21.10
2024-02-13T03:15:42.532Z,21.10
2024-02-13T03:18:11.332Z,21.10
2024-02-13T03:20:40.672Z,21.10
2024-02-13T03:23:07.841Z,21.10
2024-02-13T03:25:35.091Z,21.10
2024-02-13T03:28:03.750Z,21.10
2024-02-13T03:30:30.978Z,21.10
2024-02-13T03:32:58.452Z,21.10
2024-02-13T03:35:27.325Z,21.10
2024-02-13T03:37:54.678Z,21.10
2024-02-13T03:40:23.223Z,21.00
2024-02-13T03:42:51.816Z,21.10
2024-02-13T03:45:19.115Z,21.10
2024-02-13T03:47:46.422Z,21.10
2024-02-13T03:50:13.727Z,21.00
2024-02-13T03:52:44.374Z,21.10
2024-02-13T03:55:11.509Z,21.10
2024-02-13T03:57:38.621Z,21.10
2024-02-13T04:00:08.527Z,21.10
2024-02-13T04:02:35.926Z,21.10
2024-02-13T04:05:02.992Z,21.10
2024-02-13T04:07:29.985Z,21.10
2024-02-13T04:10:00.305Z,21.10
2024-02-13T04:12:27.343Z,21.10
2024-02-13T04:14:54.437Z,21.10
2024-02-13T04:17:21.949Z,21.10
2024-02-13T04:19:51.769Z,21.10
2024-02-13T04:22:19.006Z,21.10
2024-02-13T04:24:46.066Z,21.10
2024-02-13T04:27:14.610Z,21.10
2024-02-13T04:29:42.514Z,21.10
2024-02-13T04:32:10.406Z,21.10
2024-02-13T04:34:37.988Z,21.10
2024-02-13T04:37:05.307Z,21.00
2024-02-13T04:39:32.875Z,21.10
2024-02-13T04:42:00.506Z,21.10
2024-02-13T04:44:29.498Z,21.10
2024-02-13T04:46:57.498Z,21.10
2024-02-13T04:49:25.624Z,21.10
2024-02-13T04:51:54.146Z,21.10
2024-02-13T04:54:21.215Z,21.10
2024-02-13T04:56:50.652Z,21.10
2024-02-13T04:59:19.680Z,21.10
2024-02-13T05:01:48.656Z,21.00
2024-02-13T05:04:16.201Z,21.10
2024-02-13T05:07:15.587Z,21.10
2024-02-13T05:09:43.229Z,21.10
2024-02-13T05:12:10.908Z,21.00
2024-02-13T05:14:37.985Z,21.10
2024-02-13T05:17:06.480Z,21.10
2024-02-13T05:19:33.490Z,21.10
2024-02-13T05:22:00.530Z,21.10
2024-02-13T05:24:28.223Z,21.10
2024-02-13T05:26:55.337Z,21.10
2024-02-13T05:29:22.581Z,21.00
2024-02-13T05:31:51.580Z,21.10
2024-02-13T05:34:20.540Z,21.10
2024-02-13T05:36:47.863Z,21.10
2024-02-13T05:39:15.096Z,21.10
2024-02-13T05:41:44.485Z,21.10
2024-02-13T05:44:11.606Z,21.10
2024-02-13T05:46:38.915Z,21.10
2024-02-13T05:49:06.294Z,21.10
2024-02-13T05:51:34.672Z,21.10
2024-02-13T05:54:06.039Z,21.10
2024-02-13T05:56:33.379Z,21.10
2024-02-13T05:59:02.131Z,21.10
2024-02-13T06:01:29.277Z,21.10
2024-02-13T06:04:00.642Z,21.10
2024-02-13T06:06:28.211Z,21.10
2024-02-13T06:08:57.839Z,21.10
2024-02-13T06:11:26.352Z,21.10
2024-02-13T06:13:54.632Z,21.10
2024-02-13T06:16:21.640Z,21.10
2024-02-13T06:18:49.829Z,21.10
2024-02-13T06:21:23.480Z,21.10
2024-02-13T06:23:52.698Z,21.10
2024-02-13T06:26:21.286Z,21.10
2024-02-13T06:28:48.484Z,21.10
2024-02-13T06:31:15.729Z,21.10
2024-02-13T06:33:42.916Z,21.10
2024-02-13T06:36:11.338Z,21.10
2024-02-13T06:38:38.715Z,21.10
2024-02-13T06:41:09.984Z,21.10
2024-02-13T06:43:40.353Z,21.10
2024-02-13T06:46:07.377Z,21.10
2024-02-13T06:48:34.914Z,21.00
2024-02-13T06:51:02.572Z,21.00
2024-02-13T06:53:30.228Z,21.00
2024-02-13T06:55:57.795Z,21.00
2024-02-13T06:58:24.844Z,21.00
2024-02-13T07:00:53.454Z,21.00
2024-02-13T07:03:21.237Z,21.00
2024-02-13T07:05:48.915Z,21.00
2024-02-13T07:08:16.687Z,21.00
2024-02-13T07:10:43.999Z,21.00
2024-02-13T07:13:11.057Z,21.00
2024-02-13T07:15:38.880Z,21.00
2024-02-13T07:18:09.441Z,21.00
2024-02-13T07:20:36.656Z,20.60
2024-02-13T07:23:04.380Z,20.90
2024-02-13T07:25:31.621Z,20.90
2024-02-13T07:27:58.828Z,20.90
2024-02-13T07:30:27.076Z,20.90
2024-02-13T07:32:55.979Z,20.90
2024-02-13T07:35:24.610Z,20.90
2024-02-13T07:37:51.852Z,21.00
2024-02-13T07:40:19.032Z,21.00
2024-02-13T07:42:46.125Z,21.00
2024-02-13T07:45:13.198Z,21.00
2024-02-13T07:47:42.341Z,20.90
2024-02-13T07:50:11.029Z,20.90
2024-02-13T07:52:40.509Z,21.00
2024-02-13T07:55:08.787Z,21.00
2024-02-13T07:57:36.356Z,21.00
2024-02-13T08:00:05.320Z,21.00
2024-02-13T08:02:32.595Z,21.00
2024-02-13T08:05:00.839Z,21.10
2024-02-13T08:07:29.746Z,21.10
2024-02-13T08:09:58.441Z,21.10
2024-02-13T08:12:25.633Z,21.10
2024-02-13T08:14:53.343Z,21.10
2024-02-13T08:17:20.711Z,21.10
2024-02-13T08:19:47.795Z,21.10
2024-02-13T08:22:16.515Z,21.10
2024-02-13T08:24:43.665Z,21.10
2024-02-13T08:27:12.213Z,21.80
2024-02-13T08:29:39.300Z,21.10
2024-02-13T08:32:07.781Z,21.10
2024-02-13T08:34:35.670Z,21.10
2024-02-13T08:37:03.111Z,21.10
2024-02-13T08:39:30.329Z,21.10
2024-02-13T08:42:00.059Z,21.10
2024-02-13T08:44:28.715Z,21.10
2024-02-13T08:46:55.848Z,21.10
2024-02-13T08:49:23.187Z,21.10
2024-02-13T08:51:50.606Z,21.20
2024-02-13T08:54:17.992Z,21.20
2024-02-13T08:56:45.447Z,21.20
2024-02-13T08:59:12.993Z,21.20
2024-02-13T09:01:42.016Z,21.30
2024-02-13T09:04:12.816Z,21.20
2024-02-13T09:06:40.073Z,21.20
2024-02-13T09:09:10.333Z,21.20
2024-02-13T09:11:37.392Z,21.20
2024-02-13T09:14:04.619Z,21.20
2024-02-13T09:16:31.698Z,21.20
2024-02-13T09:19:00.277Z,21.30
2024-02-13T09:21:27.669Z,21.30
2024-02-13T09:23:55.550Z,21.30
2024-02-13T09:26:24.468Z,21.30
2024-02-13T09:28:51.669Z,21.30
2024-02-13T09:31:18.650Z,21.30
2024-02-13T09:33:46.800Z,21.30
2024-02-13T09:36:16.482Z,21.30
2024-02-13T09:38:44.035Z,21.30
2024-02-13T09:41:11.998Z,21.30
2024-02-13T09:43:44.060Z,21.30
2024-02-13T09:46:16.265Z,21.30
2024-02-13T09:48:47.588Z,21.40
2024-02-13T09:53:51.933Z,21.40
2024-02-13T09:56:19.375Z,21.40
2024-02-13T09:58:50.360Z,21.40
2024-02-13T10:01:17.474Z,21.50
2024-02-13T10:06:20.628Z,21.50
2024-02-13T10:08:53.413Z,21.60
2024-02-13T10:11:30.802Z,21.60
2024-02-13T10:13:58.371Z,21.60
2024-02-13T10:16:29.087Z,21.60
2024-02-13T10:19:03.591Z,21.70
2024-02-13T10:21:32.493Z,21.70
2024-02-13T10:24:07.832Z,21.70
2024-02-13T10:26:36.379Z,21.70
2024-02-13T10:29:04.754Z,21.60
2024-02-13T10:31:36.256Z,21.60
2024-02-13T10:34:04.998Z,21.60
2024-02-13T10:36:36.033Z,21.60
2024-02-13T10:39:09.376Z,21.60
2024-02-13T10:41:41.028Z,21.60
2024-02-13T10:44:11.796Z,21.70
2024-02-13T10:46:41.394Z,21.70
2024-02-13T10:49:21.208Z,21.80
2024-02-13T10:51:51.285Z,21.80
2024-02-13T10:56:53.352Z,21.80
2024-02-13T10:59:22.746Z,21.80
2024-02-13T11:01:55.521Z,21.90
2024-02-13T11:04:23.101Z,21.80
2024-02-13T11:06:53.114Z,21.90
2024-02-13T11:09:21.576Z,22.00
2024-02-13T11:11:48.916Z,22.00
2024-02-13T11:14:17.841Z,22.10
2024-02-13T11:16:52.461Z,22.10
2024-02-13T11:19:21.415Z,22.10
2024-02-13T11:21:52.392Z,22.10
2024-02-13T11:24:23.824Z,22.10
2024-02-13T11:26:51.336Z,22.10
2024-02-13T11:29:23.578Z,22.10
2024-02-13T11:31:55.490Z,22.10
2024-02-13T11:34:38.420Z,22.00
2024-02-13T11:37:17.330Z,22.00
2024-02-13T11:39:47.281Z,22.00
2024-02-13T11:42:18.919Z,22.00
2024-02-13T11:44:49.037Z,22.00
2024-02-13T11:47:20.246Z,22.00
2024-02-13T11:49:50.300Z,22.00
2024-02-13T11:52:18.040Z,22.00
2024-02-13T11:54:47.487Z,22.00
2024-02-13T11:57:15.382Z,22.00
2024-02-13T11:59:43.838Z,22.00
2024-02-13T12:04:45.640Z,22.10
2024-02-13T12:07:13.363Z,22.10
2024-02-13T12:09:45.528Z,22.10
2024-02-13T12:12:15.817Z,22.10
2024-02-13T12:14:44.531Z,22.10
2024-02-13T12:17:13.545Z,22.20
2024-02-13T12:19:41.722Z,22.10
2024-02-13T12:22:10.068Z,22.10
2024-02-13T12:24:41.498Z,22.10
2024-02-13T12:27:11.833Z,22.00
2024-02-13T12:29:41.141Z,22.00
2024-02-13T12:32:10.262Z,22.00
2024-02-13T12:34:38.111Z,22.00
2024-02-13T12:37:09.688Z,22.00
2024-02-13T12:39:41.325Z,22.00
2024-02-13T12:42:12.413Z,21.90
2024-02-13T12:44:41.518Z,21.90
2024-02-13T12:47:09.339Z,22.00
2024-02-13T12:49:38.401Z,22.00
2024-02-13T12:52:06.916Z,21.90
2024-02-13T12:54:34.276Z,22.00
2024-02-13T12:57:02.001Z,22.00
2024-02-13T12:59:29.728Z,22.10
2024-02-13T13:02:00.602Z,22.10
2024-02-13T13:04:29.307Z,22.10
2024-02-13T13:06:56.606Z,22.20
2024-02-13T13:09:28.000Z,22.30
2024-02-13T13:11:56.680Z,22.30
2024-02-13T13:14:24.987Z,22.20
2024-02-13T13:16:53.372Z,22.30
2024-02-13T13:19:25.272Z,22.30
2024-02-13T13:21:55.020Z,22.30
2024-02-13T13:24:23.829Z,22.20
2024-02-13T13:26:51.585Z,22.20
2024-02-13T13:29:19.933Z,22.20
2024-02-13T13:31:48.781Z,22.10
2024-02-13T13:34:24.235Z,22.10
2024-02-13T13:36:53.865Z,22.10
2024-02-13T13:39:22.210Z,22.10
2024-02-13T13:41:51.363Z,22.20
2024-02-13T13:44:19.585Z,22.20
2024-02-13T13:46:48.565Z,22.30
2024-02-13T13:49:19.400Z,22.40
2024-02-13T13:51:48.097Z,22.50
2024-02-13T13:54:16.800Z,22.50
2024-02-13T13:56:43.933Z,22.40
2024-02-13T13:59:11.052Z,22.40
2024-02-13T14:01:38.096Z,22.40
2024-02-13T14:04:06.072Z,22.40
2024-02-13T14:06:33.477Z,22.30
2024-02-13T14:09:00.979Z,22.30
2024-02-13T14:11:29.648Z,22.30
2024-02-13T14:13:58.573Z,22.30
2024-02-13T14:16:28.109Z,22.30
2024-02-13T14:18:55.213Z,22.30
2024-02-13T14:21:24.506Z,22.30
2024-02-13T14:23:55.670Z,22.30
2024-02-13T14:26:22.895Z,22.30
2024-02-13T14:28:51.477Z,22.30
2024-02-13T14:31:18.721Z,22.30
2024-02-13T14:33:45.950Z,22.30
2024-02-13T14:36:13.155Z,22.30
2024-02-13T14:38:40.572Z,22.30
2024-02-13T14:41:09.524Z,22.20
2024-02-13T14:43:38.502Z,22.20
2024-02-13T14:46:07.746Z,22.20
2024-02-13T14:48:34.962Z,22.20
2024-02-13T14:51:02.329Z,22.20
2024-02-13T14:53:29.442Z,22.10
2024-02-13T14:55:58.391Z,22.10
2024-02-13T14:58:34.269Z,22.10
2024-02-13T15:01:11.454Z,22.10
2024-02-13T15:06:10.543Z,22.20
2024-02-13T15:08:39.689Z,22.20
2024-02-13T15:11:10.028Z,22.10
2024-02-13T15:13:38.515Z,22.00
2024-02-13T15:16:08.545Z,22.00
2024-02-13T15:18:37.682Z,22.00
2024-02-13T15:21:06.795Z,22.00
2024-02-13T15:23:34.009Z,22.00
2024-02-13T15:26:01.303Z,22.00
2024-02-13T15:28:28.296Z,22.00
2024-02-13T15:30:55.445Z,22.00
2024-02-13T15:33:26.521Z,22.00
2024-02-13T15:36:03.694Z,21.90
2024-02-13T15:38:51.179Z,21.90
2024-02-13T15:41:36.782Z,22.00
2024-02-13T15:44:22.390Z,22.00
2024-02-13T15:47:08.881Z,22.10
2024-02-13T15:49:40.981Z,22.10
2024-02-13T15:52:08.200Z,22.10
2024-02-13T15:54:36.459Z,22.10
2024-02-13T15:57:05.815Z,22.10
2024-02-13T15:59:33.014Z,22.10
2024-02-13T16:02:01.061Z,22.10
2024-02-13T16:04:29.717Z,22.00
2024-02-13T16:06:59.218Z,22.10
2024-02-13T16:09:26.847Z,22.10
2024-02-13T16:11:54.191Z,22.00
2024-02-13T16:14:21.330Z,22.10
2024-02-13T16:16:48.428Z,22.10
2024-02-13T16:19:15.855Z,22.10
2024-02-13T16:21:43.174Z,22.20
2024-02-13T16:24:11.803Z,22.20
2024-02-13T16:26:39.156Z,22.20
2024-02-13T16:29:07.179Z,22.20
2024-02-13T16:31:34.329Z,22.20
2024-02-13T16:34:01.648Z,22.30
2024-02-13T16:36:28.882Z,22.20
2024-02-13T16:38:56.083Z,22.20
2024-02-13T16:41:24.779Z,22.30
2024-02-13T16:43:52.125Z,22.20
2024-02-13T16:46:21.278Z,22.30
2024-02-13T16:48:51.426Z,22.30
2024-02-13T16:51:22.163Z,22.20
2024-02-13T16:53:49.325Z,22.30
2024-02-13T16:56:18.885Z,22.30
2024-02-13T16:58:47.481Z,22.30
2024-02-13T17:01:16.102Z,22.30
2024-02-13T17:03:48.191Z,22.30
2024-02-13T17:06:15.609Z,22.40
2024-02-13T17:08:43.440Z,22.30
2024-02-13T17:11:10.698Z,22.40
2024-02-13T17:13:38.450Z,22.40
2024-02-13T17:16:09.970Z,22.30
2024-02-13T17:18:37.877Z,22.30
2024-02-13T17:21:06.040Z,22.20
2024-02-13T17:23:35.978Z,22.20
2024-02-13T17:26:05.260Z,22.10
2024-02-13T17:28:32.372Z,22.10
2024-02-13T17:30:59.415Z,22.10
2024-02-13T17:33:28.063Z,22.10
2024-02-13T17:35:56.947Z,22.10
2024-02-13T17:38:24.703Z,22.20
2024-02-13T17:40:53.461Z,22.10
2024-02-13T17:43:20.513Z,22.10
2024-02-13T17:45:47.854Z,22.10
2024-02-13T17:48:15.072Z,22.10
2024-02-13T17:50:43.629Z,22.10
2024-02-13T17:53:10.620Z,22.10
2024-02-13T17:55:38.475Z,22.10
2024-02-13T17:58:05.591Z,22.10
2024-02-13T18:00:35.814Z,22.20
2024-02-13T18:03:03.735Z,22.20
2024-02-13T18:05:32.027Z,22.20
2024-02-13T18:08:00.599Z,22.20
2024-02-13T18:10:27.676Z,22.20
2024-02-13T18:12:58.823Z,22.20
2024-02-13T18:15:28.210Z,22.20
2024-02-13T18:17:56.932Z,22.20
2024-02-13T18:20:27.470Z,22.10
2024-02-13T18:22:55.219Z,22.10
2024-02-13T18:25:24.068Z,22.00
2024-02-13T18:27:51.156Z,22.10
2024-02-13T18:30:18.861Z,22.10
2024-02-13T18:32:46.119Z,22.10
2024-02-13T18:35:13.182Z,22.10
2024-02-13T18:37:41.814Z,22.10
2024-02-13T18:40:10.022Z,22.10
2024-02-13T18:42:39.302Z,22.10
2024-02-13T18:45:09.618Z,22.10
2024-02-13T18:47:37.066Z,22.10
2024-02-13T18:50:05.609Z,22.10
2024-02-13T18:52:33.198Z,22.10
2024-02-13T18:55:00.185Z,22.10
2024-02-13T18:57:27.164Z,22.10
2024-02-13T18:59:55.565Z,22.10
2024-02-13T19:02:23.478Z,22.20
2024-02-13T19:04:51.155Z,22.20
2024-02-13T19:07:18.394Z,22.20
2024-02-13T19:09:45.676Z,22.20
2024-02-13T19:12:12.660Z,22.30
2024-02-13T19:14:39.702Z,22.30
2024-02-13T19:17:10.716Z,22.40
2024-02-13T19:19:38.156Z,22.40
2024-02-13T19:22:05.256Z,22.50
2024-02-13T19:24:32.369Z,22.50
2024-02-13T19:26:59.719Z,22.50
2024-02-13T19:29:26.767Z,22.60
2024-02-13T19:31:53.791Z,22.60
2024-02-13T19:34:24.698Z,22.60
2024-02-13T19:36:53.183Z,22.60
2024-02-13T19:39:21.224Z,22.60
2024-02-13T19:41:48.367Z,22.60
2024-02-13T19:44:15.700Z,22.60
2024-02-13T19:46:43.995Z,22.60
2024-02-13T19:49:11.602Z,22.60
2024-02-13T19:51:40.213Z,22.60
2024-02-13T19:54:08.529Z,22.70
2024-02-13T19:56:36.002Z,22.60
2024-02-13T19:59:04.980Z,22.60
2024-02-13T20:01:33.816Z,22.60
2024-02-13T20:04:03.746Z,22.60
2024-02-13T20:06:31.316Z,22.50
2024-02-13T20:09:01.865Z,22.50
2024-02-13T20:11:30.891Z,22.50
2024-02-13T20:13:58.140Z,22.50
2024-02-13T20:16:27.044Z,22.40
2024-02-13T20:18:58.715Z,22.50
2024-02-13T20:21:29.608Z,22.40
2024-02-13T20:23:56.887Z,22.50
2024-02-13T20:26:25.374Z,22.40
2024-02-13T20:28:53.148Z,22.40
2024-02-13T20:31:23.172Z,22.40
2024-02-13T20:33:50.567Z,22.30
2024-02-13T20:36:17.786Z,22.30
2024-02-13T20:38:45.195Z,22.20
2024-02-13T20:41:12.432Z,22.30
2024-02-13T20:43:44.023Z,22.20
2024-02-13T20:46:12.980Z,22.30
2024-02-13T20:48:40.501Z,22.30
2024-02-13T20:51:08.116Z,22.40
2024-02-13T20:53:35.507Z,22.30
2024-02-13T20:56:03.027Z,22.30
2024-02-13T20:58:32.169Z,22.30
2024-02-13T21:01:01.161Z,22.30
2024-02-13T21:03:28.276Z,22.20
2024-02-13T21:05:55.980Z,22.20
2024-02-13T21:08:23.359Z,22.10
2024-02-13T21:10:51.062Z,22.10
2024-02-13T21:13:18.967Z,22.10
2024-02-13T21:15:46.348Z,22.10
2024-02-13T21:18:14.847Z,22.10
2024-02-13T21:20:46.920Z,22.20
2024-02-13T21:23:37.063Z,22.20
2024-02-13T21:26:04.297Z,22.20
2024-02-13T21:28:31.818Z,22.20
2024-02-13T21:31:00.297Z,22.20
2024-02-13T21:33:28.935Z,22.10
2024-02-13T21:35:56.178Z,22.10
2024-02-13T21:38:23.264Z,22.10
2024-02-13T21:40:50.503Z,22.10
2024-02-13T21:43:17.485Z,22.10
2024-02-13T21:45:44.895Z,22.20
2024-02-13T21:48:12.537Z,22.20
2024-02-13T21:50:41.385Z,22.20
2024-02-13T21:53:08.964Z,22.20
2024-02-13T21:55:36.380Z,22.20
2024-02-13T21:58:03.627Z,22.20
2024-02-13T22:00:31.962Z,22.10
2024-02-13T22:03:01.338Z,22.10
2024-02-13T22:05:29.020Z,22.70
2024-02-13T22:07:57.465Z,22.10
2024-02-13T22:10:24.669Z,22.20
2024-02-13T22:12:51.652Z,22.20
2024-02-13T22:15:21.608Z,22.20
2024-02-13T22:17:49.013Z,22.20
2024-02-13T22:20:16.968Z,22.20
2024-02-13T22:22:44.205Z,22.20
2024-02-13T22:25:12.721Z,22.20
2024-02-13T22:27:40.162Z,22.20
2024-02-13T22:30:08.216Z,22.20
2024-02-13T22:32:37.078Z,22.20
2024-02-13T22:35:04.971Z,22.20
2024-02-13T22:37:32.058Z,22.20
2024-02-13T22:39:59.748Z,22.20
2024-02-13T22:42:28.209Z,22.30
2024-02-13T22:44:55.605Z,22.20
2024-02-13T22:47:22.690Z,22.30
2024-02-13T22:49:49.759Z,22.30
2024-02-13T22:52:17.019Z,22.30
2024-02-13T22:54:44.816Z,22.30
2024-02-13T22:57:11.844Z,22.20
2024-02-13T22:59:40.274Z,22.20
2024-02-13T23:02:08.871Z,22.20
2024-02-13T23:04:35.888Z,22.30
2024-02-13T23:07:04.007Z,22.30
2024-02-13T23:12:00.512Z,22.30
2024-02-13T23:14:32.599Z,22.30
2024-02-13T23:17:05.796Z,22.30
2024-02-13T23:19:34.426Z,22.30
2024-02-13T23:22:01.999Z,22.30
2024-02-13T23:24:28.937Z,22.30
2024-02-13T23:26:55.984Z,22.30
2024-02-13T23:29:23.409Z,22.30
2024-02-13T23:31:50.506Z,22.40
2024-02-13T23:34:19.685Z,22.30
2024-02-13T23:36:46.943Z,22.40
2024-02-13T23:39:22.960Z,22.60
2024-02-13T23:41:49.994Z,22.40
2024-02-13T23:44:17.086Z,22.40
2024-02-13T23:46:44.337Z,22.40
2024-02-13T23:49:11.471Z,22.30
2024-02-13T23:51:40.667Z,22.30
2024-02-13T23:54:07.855Z,22.30
2024-02-13T23:56:35.075Z,22.30
2024-02-13T23:59:02.087Z,22.30
